createdAt,value
2019-05-19T00:00:47.077Z,12.60
2019-05-19T00:03:15.499Z,12.60
2019-05-19T00:05:43.580Z,12.60
2019-05-19T00:08:12.238Z,12.60
2019-05-19T00:10:40.265Z,12.50
2019-05-19T00:13:08.449Z,12.60
2019-05-19T00:15:36.691Z,12.60
2019-05-19T00:18:04.888Z,12.50
2019-05-19T00:20:33.087Z,12.50
2019-05-19T00:23:01.668Z,12.60
2019-05-19T00:25:30.239Z,12.60
2019-05-19T00:27:58.281Z,12.60
2019-05-19T00:30:26.369Z,12.60
2019-05-19T00:32:54.886Z,12.60
2019-05-19T00:35:23.048Z,12.60
2019-05-19T00:37:51.589Z,12.60
2019-05-19T00:40:19.648Z,12.60
2019-05-19T00:42:47.736Z,12.70
2019-05-19T00:45:16.681Z,12.70
2019-05-19T00:47:44.743Z,12.70
2019-05-19T00:50:13.065Z,12.70
2019-05-19T00:52:41.254Z,12.70
2019-05-19T00:55:09.583Z,12.70
2019-05-19T00:57:39.061Z,12.70
2019-05-19T01:00:08.645Z,12.70
2019-05-19T01:02:36.849Z,12.80
2019-05-19T01:05:05.214Z,12.70
2019-05-19T01:07:33.774Z,12.80
2019-05-19T01:10:02.666Z,12.80
2019-05-19T01:12:30.780Z,12.80
2019-05-19T01:14:58.862Z,12.80
2019-05-19T01:17:27.023Z,12.80
2019-05-19T01:19:56.345Z,12.90
2019-05-19T01:22:25.139Z,12.90
2019-05-19T01:24:53.173Z,12.90
2019-05-19T01:27:21.725Z,12.90
2019-05-19T01:29:49.877Z,13.00
2019-05-19T01:32:17.947Z,13.00
2019-05-19T01:34:46.016Z,13.00
2019-05-19T01:37:14.436Z,13.00
2019-05-19T01:39:42.506Z,13.00
2019-05-19T01:42:10.923Z,13.00
2019-05-19T01:44:38.955Z,12.90
2019-05-19T01:47:07.017Z,13.00
2019-05-19T01:49:35.145Z,13.00
2019-05-19T01:52:03.761Z,12.90
2019-05-19T01:54:31.852Z,12.90
2019-05-19T01:57:00.003Z,12.90
2019-05-19T01:59:28.124Z,12.80
2019-05-19T02:01:56.165Z,12.80
2019-05-19T02:04:24.223Z,12.80
2019-05-19T02:06:52.157Z,12.80
2019-05-19T02:09:20.484Z,12.70
2019-05-19T02:11:49.859Z,12.70
2019-05-19T02:14:19.206Z,12.70
2019-05-19T02:16:47.888Z,12.70
2019-05-19T02:19:21.528Z,12.70
2019-05-19T02:21:53.821Z,12.70
2019-05-19T02:24:24.820Z,12.70
2019-05-19T02:26:56.374Z,12.70
2019-05-19T02:29:29.817Z,12.70
2019-05-19T02:32:02.595Z,12.60
2019-05-19T02:34:31.856Z,12.60
2019-05-19T02:37:00.551Z,12.70
2019-05-19T02:39:29.357Z,12.60
2019-05-19T02:41:59.678Z,12.60
2019-05-19T02:44:31.007Z,12.60
2019-05-19T02:47:01.550Z,12.60
2019-05-19T02:49:32.955Z,12.60
2019-05-19T02:52:03.915Z,12.60
2019-05-19T02:54:34.339Z,12.60
2019-05-19T02:57:05.270Z,12.60
2019-05-19T02:59:35.164Z,12.60
2019-05-19T03:02:06.749Z,12.60
2019-05-19T03:04:36.066Z,12.60
2019-05-19T03:07:05.446Z,12.60
2019-05-19T03:09:34.453Z,12.70
2019-05-19T03:12:03.398Z,12.70
2019-05-19T03:14:32.255Z,12.70
2019-05-19T03:17:01.902Z,12.70
2019-05-19T03:19:30.373Z,12.70
2019-05-19T03:21:58.517Z,12.70
2019-05-19T03:24:27.071Z,12.70
2019-05-19T03:26:55.275Z,12.70
2019-05-19T03:29:28.038Z,12.70
2019-05-19T03:32:02.906Z,12.80
2019-05-19T03:34:31.224Z,12.80
2019-05-19T03:36:59.926Z,12.80
2019-05-19T03:39:28.952Z,12.80
2019-05-19T03:41:57.144Z,12.80
2019-05-19T03:44:25.236Z,12.80
2019-05-19T03:46:53.560Z,12.80
2019-05-19T03:49:21.658Z,12.80
2019-05-19T03:51:49.982Z,12.80
2019-05-19T03:54:18.584Z,12.90
2019-05-19T03:56:46.604Z,12.80
2019-05-19T03:59:14.607Z,12.90
2019-05-19T04:01:43.093Z,12.90
2019-05-19T04:04:11.515Z,12.90
2019-05-19T04:06:39.657Z,12.90
2019-05-19T04:09:07.904Z,12.90
2019-05-19T04:11:35.905Z,12.90
2019-05-19T04:14:04.156Z,12.90
2019-05-19T04:16:33.153Z,12.90
2019-05-19T04:19:00.983Z,13.00
2019-05-19T04:21:38.733Z,13.00
2019-05-19T04:23:58.920Z,12.90
2019-05-19T04:26:27.683Z,12.90
2019-05-19T04:28:55.859Z,12.90
2019-05-19T04:31:24.100Z,12.90
2019-05-19T04:33:52.080Z,12.90
2019-05-19T04:36:19.981Z,13.00
2019-05-19T04:38:47.894Z,12.90
2019-05-19T04:41:16.638Z,13.00
2019-05-19T04:43:44.895Z,12.90
2019-05-19T04:46:12.905Z,13.00
2019-05-19T04:48:40.790Z,13.00
2019-05-19T04:51:08.790Z,13.00
2019-05-19T04:53:37.103Z,13.00
2019-05-19T04:56:05.030Z,13.00
2019-05-19T04:58:32.926Z,13.00
2019-05-19T05:01:01.133Z,13.00
2019-05-19T05:03:29.058Z,13.00
2019-05-19T05:05:56.923Z,13.00
2019-05-19T05:08:30.303Z,13.00
2019-05-19T05:10:54.542Z,13.10
2019-05-19T05:13:22.459Z,13.10
2019-05-19T05:15:50.343Z,13.10
2019-05-19T05:18:18.289Z,13.10
2019-05-19T05:20:46.211Z,13.10
2019-05-19T05:23:14.107Z,13.10
2019-05-19T05:25:42.065Z,13.20
2019-05-19T05:28:10.727Z,13.20
2019-05-19T05:30:38.864Z,13.20
2019-05-19T05:33:07.390Z,13.20
2019-05-19T05:35:35.480Z,13.20
2019-05-19T05:38:04.174Z,13.30
2019-05-19T05:40:32.185Z,13.30
2019-05-19T05:43:00.675Z,13.30
2019-05-19T05:45:28.993Z,13.30
2019-05-19T05:47:57.622Z,13.40
2019-05-19T05:50:27.053Z,13.40
2019-05-19T05:52:55.167Z,13.50
2019-05-19T05:55:23.383Z,13.40
2019-05-19T05:57:51.950Z,13.50
2019-05-19T06:00:20.254Z,13.60
2019-05-19T06:02:48.839Z,13.60
2019-05-19T06:05:17.282Z,13.70
2019-05-19T06:07:45.433Z,13.80
2019-05-19T06:10:14.615Z,13.80
2019-05-19T06:12:42.856Z,13.80
2019-05-19T06:15:11.537Z,13.90
2019-05-19T06:17:39.903Z,14.00
2019-05-19T06:20:08.845Z,14.10
2019-05-19T06:22:54.435Z,14.10
2019-05-19T06:25:08.988Z,14.20
2019-05-19T06:27:37.990Z,14.30
2019-05-19T06:30:08.670Z,14.30
2019-05-19T06:32:43.326Z,14.30
2019-05-19T06:35:11.559Z,14.30
2019-05-19T06:37:39.773Z,14.20
2019-05-19T06:40:08.600Z,14.20
2019-05-19T06:42:37.215Z,14.30
2019-05-19T06:45:07.013Z,14.40
2019-05-19T06:47:35.240Z,14.40
2019-05-19T06:50:04.030Z,14.30
2019-05-19T06:52:33.495Z,14.30
2019-05-19T06:55:01.785Z,14.40
2019-05-19T06:57:29.963Z,14.40
2019-05-19T06:59:58.369Z,14.30
2019-05-19T07:02:26.487Z,14.30
2019-05-19T07:04:55.081Z,14.30
2019-05-19T07:07:23.236Z,14.30
2019-05-19T07:09:58.561Z,14.20
2019-05-19T07:12:25.266Z,14.30
2019-05-19T07:14:53.596Z,14.30
2019-05-19T07:17:23.059Z,14.40
2019-05-19T07:19:51.277Z,14.50
2019-05-19T07:22:19.562Z,14.30
2019-05-19T07:24:47.631Z,14.20
2019-05-19T07:27:15.702Z,14.20
2019-05-19T07:29:43.821Z,14.10
2019-05-19T07:32:12.061Z,14.00
2019-05-19T07:34:40.658Z,14.00
2019-05-19T07:37:09.183Z,13.90
2019-05-19T07:39:37.797Z,13.90
2019-05-19T07:42:06.606Z,14.00
2019-05-19T07:44:35.503Z,14.00
2019-05-19T07:47:04.178Z,14.00
2019-05-19T07:49:32.952Z,13.90
2019-05-19T07:52:01.202Z,13.90
2019-05-19T07:54:29.820Z,13.80
2019-05-19T07:56:58.350Z,13.80
2019-05-19T07:59:26.950Z,13.80
2019-05-19T08:01:55.380Z,13.70
2019-05-19T08:04:23.917Z,13.70
2019-05-19T08:06:52.194Z,13.70
2019-05-19T08:09:20.475Z,13.70
2019-05-19T08:11:48.600Z,13.70
2019-05-19T08:14:17.573Z,13.60
2019-05-19T08:16:45.619Z,13.70
2019-05-19T08:19:13.921Z,13.60
2019-05-19T08:21:42.279Z,13.70
2019-05-19T08:24:10.712Z,13.60
2019-05-19T08:26:38.827Z,13.70
2019-05-19T08:29:06.754Z,13.70
2019-05-19T08:31:34.895Z,13.70
2019-05-19T08:34:03.242Z,13.70
2019-05-19T08:36:31.389Z,13.80
2019-05-19T08:38:59.404Z,13.70
2019-05-19T08:41:31.615Z,13.80
2019-05-19T08:44:00.321Z,13.80
2019-05-19T08:46:29.643Z,13.90
2019-05-19T08:48:58.531Z,14.00
2019-05-19T08:51:27.348Z,14.10
2019-05-19T08:53:56.500Z,14.20
2019-05-19T08:56:26.715Z,14.20
2019-05-19T08:58:56.270Z,14.20
2019-05-19T09:01:24.340Z,14.20
2019-05-19T09:03:54.959Z,14.30
2019-05-19T09:06:23.022Z,14.30
2019-05-19T09:08:51.025Z,14.20
2019-05-19T09:11:19.467Z,14.20
2019-05-19T09:13:47.669Z,14.30
2019-05-19T09:16:15.751Z,14.30
2019-05-19T09:18:43.763Z,14.40
2019-05-19T09:21:11.845Z,14.50
2019-05-19T09:23:39.927Z,14.60
2019-05-19T09:26:08.120Z,14.80
2019-05-19T09:28:36.231Z,14.90
2019-05-19T09:31:04.435Z,15.00
2019-05-19T09:33:32.527Z,15.10
2019-05-19T09:36:00.585Z,14.90
2019-05-19T09:38:28.585Z,15.00
2019-05-19T09:40:57.275Z,15.10
2019-05-19T09:43:27.402Z,15.10
2019-05-19T09:45:55.842Z,15.00
2019-05-19T09:48:23.936Z,15.10
2019-05-19T09:50:52.522Z,15.20
2019-05-19T09:53:20.887Z,15.10
2019-05-19T09:55:49.013Z,15.10
2019-05-19T09:58:20.023Z,15.20
2019-05-19T10:00:47.894Z,15.20
2019-05-19T10:03:19.779Z,15.30
2019-05-19T10:05:48.085Z,15.50
2019-05-19T10:08:18.333Z,15.70
2019-05-19T10:11:16.269Z,15.80
2019-05-19T10:13:44.250Z,16.00
2019-05-19T10:16:12.348Z,16.10
2019-05-19T10:18:40.507Z,16.10
2019-05-19T10:21:08.747Z,15.70
2019-05-19T10:23:36.927Z,15.90
2019-05-19T10:26:06.195Z,15.90
2019-05-19T10:28:35.573Z,15.70
2019-05-19T10:31:04.478Z,15.70
2019-05-19T10:33:33.830Z,15.80
2019-05-19T10:36:02.044Z,15.80
2019-05-19T10:38:30.350Z,16.00
2019-05-19T10:40:58.712Z,16.00
2019-05-19T10:43:27.509Z,15.90
2019-05-19T10:46:01.338Z,15.80
2019-05-19T10:48:29.343Z,15.80
2019-05-19T10:50:57.385Z,15.60
2019-05-19T10:53:25.402Z,15.50
2019-05-19T10:55:53.306Z,15.40
2019-05-19T10:58:21.669Z,15.50
2019-05-19T11:00:49.666Z,15.30
2019-05-19T11:03:18.107Z,15.00
2019-05-19T11:05:46.357Z,14.90
2019-05-19T11:08:14.674Z,14.70
2019-05-19T11:10:43.118Z,14.60
2019-05-19T11:13:11.599Z,14.40
2019-05-19T11:15:39.932Z,14.30
2019-05-19T11:18:07.858Z,14.10
2019-05-19T11:20:37.230Z,14.00
2019-05-19T11:23:15.980Z,13.80
2019-05-19T11:25:51.429Z,13.70
2019-05-19T11:28:14.841Z,13.70
2019-05-19T11:30:42.852Z,13.70
2019-05-19T11:33:10.803Z,13.70
2019-05-19T11:35:39.191Z,13.70
2019-05-19T11:38:08.588Z,13.60
2019-05-19T11:40:38.506Z,13.70
2019-05-19T11:43:06.699Z,13.80
2019-05-19T11:45:34.772Z,13.90
2019-05-19T11:48:03.723Z,14.00
2019-05-19T11:50:33.041Z,14.20
2019-05-19T11:53:02.230Z,14.40
2019-05-19T11:55:30.494Z,14.60
2019-05-19T11:57:58.627Z,14.70
2019-05-19T12:00:26.556Z,14.80
2019-05-19T12:02:54.760Z,15.00
2019-05-19T12:05:24.106Z,15.40
2019-05-19T12:07:53.090Z,15.80
2019-05-19T12:10:21.017Z,16.10
2019-05-19T12:12:48.945Z,16.10
2019-05-19T12:15:17.750Z,16.00
2019-05-19T12:17:46.048Z,16.40
2019-05-19T12:20:14.188Z,16.90
2019-05-19T12:22:42.402Z,17.10
2019-05-19T12:25:11.278Z,16.80
2019-05-19T12:27:39.834Z,16.60
2019-05-19T12:30:08.530Z,16.70
2019-05-19T12:32:36.982Z,17.10
2019-05-19T12:35:05.494Z,17.40
2019-05-19T12:37:33.910Z,17.60
2019-05-19T12:40:01.998Z,17.70
2019-05-19T12:42:29.856Z,17.80
2019-05-19T12:44:57.804Z,18.10
2019-05-19T12:47:25.769Z,18.00
2019-05-19T12:49:53.888Z,17.90
2019-05-19T12:52:23.135Z,18.10
2019-05-19T12:54:51.232Z,18.40
2019-05-19T12:57:21.346Z,18.50
2019-05-19T12:59:49.230Z,18.60
2019-05-19T13:02:17.605Z,18.80
2019-05-19T13:05:01.142Z,18.90
2019-05-19T13:07:16.823Z,19.00
2019-05-19T13:09:45.333Z,18.30
2019-05-19T13:12:14.202Z,18.00
2019-05-19T13:14:42.595Z,17.80
2019-05-19T13:17:10.731Z,17.70
2019-05-19T13:19:39.262Z,18.00
2019-05-19T13:22:07.525Z,18.10
2019-05-19T13:24:36.011Z,17.50
2019-05-19T13:27:04.283Z,17.40
2019-05-19T13:29:32.337Z,17.20
2019-05-19T13:32:00.591Z,17.00
2019-05-19T13:34:29.219Z,17.10
2019-05-19T13:36:57.365Z,17.00
2019-05-19T13:39:25.658Z,17.20
2019-05-19T13:41:53.733Z,17.10
2019-05-19T13:44:22.972Z,16.80
2019-05-19T13:46:51.033Z,16.70
2019-05-19T13:49:19.115Z,16.80
2019-05-19T13:51:47.690Z,17.00
2019-05-19T13:54:15.729Z,17.30
2019-05-19T13:57:12.277Z,17.10
2019-05-19T13:59:38.203Z,16.90
2019-05-19T14:02:07.135Z,16.80
2019-05-19T14:04:36.293Z,16.70
2019-05-19T14:07:04.448Z,16.70
2019-05-19T14:09:32.547Z,16.50
2019-05-19T14:12:03.274Z,16.20
2019-05-19T14:14:31.801Z,15.80
2019-05-19T14:17:00.527Z,15.70
2019-05-19T14:19:30.028Z,15.80
2019-05-19T14:21:58.173Z,15.80
2019-05-19T14:24:26.314Z,15.60
2019-05-19T14:26:54.781Z,15.80
2019-05-19T14:29:23.256Z,15.50
2019-05-19T14:31:51.444Z,15.20
2019-05-19T14:34:20.580Z,15.20
2019-05-19T14:36:48.585Z,15.10
2019-05-19T14:39:17.006Z,15.10
2019-05-19T14:41:50.114Z,15.10
2019-05-19T14:44:18.516Z,15.10
2019-05-19T14:46:46.570Z,15.00
2019-05-19T14:49:14.786Z,14.90
2019-05-19T14:51:42.837Z,14.70
2019-05-19T14:54:10.943Z,14.60
2019-05-19T14:56:39.136Z,14.80
2019-05-19T14:59:07.336Z,14.80
2019-05-19T15:01:35.397Z,14.70
2019-05-19T15:04:03.533Z,14.70
2019-05-19T15:06:31.705Z,14.90
2019-05-19T15:09:00.017Z,14.90
2019-05-19T15:11:29.250Z,14.80
2019-05-19T15:13:57.421Z,14.80
2019-05-19T15:16:25.942Z,14.90
2019-05-19T15:18:54.525Z,14.70
2019-05-19T15:21:23.018Z,14.40
2019-05-19T15:23:51.536Z,14.40
2019-05-19T15:26:19.617Z,14.40
2019-05-19T15:28:47.762Z,14.30
2019-05-19T15:31:16.123Z,14.10
2019-05-19T15:33:44.238Z,14.20
2019-05-19T15:36:12.375Z,14.10
2019-05-19T15:38:40.505Z,14.10
2019-05-19T15:41:08.862Z,13.90
2019-05-19T15:43:37.050Z,13.80
2019-05-19T15:46:07.564Z,13.80
2019-05-19T15:48:35.805Z,14.00
2019-05-19T15:51:04.489Z,14.00
2019-05-19T15:53:32.696Z,13.90
2019-05-19T15:56:05.737Z,13.80
2019-05-19T15:58:33.626Z,13.80
2019-05-19T16:01:01.605Z,13.80
2019-05-19T16:03:30.110Z,13.80
2019-05-19T16:05:58.673Z,13.80
2019-05-19T16:08:26.593Z,13.70
2019-05-19T16:10:55.295Z,13.70
2019-05-19T16:13:23.542Z,13.80
2019-05-19T16:15:51.356Z,13.80
2019-05-19T16:18:19.509Z,13.70
2019-05-19T16:20:47.538Z,13.80
2019-05-19T16:23:15.573Z,13.80
2019-05-19T16:25:43.612Z,13.80
2019-05-19T16:28:11.656Z,13.80
2019-05-19T16:30:40.246Z,13.80
2019-05-19T16:33:11.178Z,13.50
2019-05-19T16:35:39.658Z,13.50
2019-05-19T16:38:08.158Z,13.60
2019-05-19T16:40:36.350Z,13.60
2019-05-19T16:43:04.821Z,13.60
2019-05-19T16:45:34.812Z,13.60
2019-05-19T16:48:03.449Z,13.50
2019-05-19T16:50:32.809Z,13.40
2019-05-19T16:53:01.276Z,13.40
2019-05-19T16:55:30.833Z,13.40
2019-05-19T16:57:59.043Z,13.40
2019-05-19T17:00:28.254Z,13.50
2019-05-19T17:02:57.195Z,13.60
2019-05-19T17:05:27.383Z,13.50
2019-05-19T17:08:00.409Z,13.40
2019-05-19T17:10:28.601Z,13.30
2019-05-19T17:12:59.265Z,13.20
2019-05-19T17:15:31.505Z,13.10
2019-05-19T17:18:11.846Z,13.10
2019-05-19T17:20:41.439Z,13.00
2019-05-19T17:23:10.106Z,13.00
2019-05-19T17:25:38.667Z,13.00
2019-05-19T17:28:06.528Z,13.00
2019-05-19T17:30:35.077Z,13.00
2019-05-19T17:33:03.160Z,12.90
2019-05-19T17:35:31.216Z,12.90
2019-05-19T17:37:59.580Z,13.00
2019-05-19T17:40:28.132Z,13.00
2019-05-19T17:42:56.205Z,12.90
2019-05-19T17:45:24.149Z,12.90
2019-05-19T17:47:53.603Z,12.90
2019-05-19T17:50:31.610Z,12.80
2019-05-19T17:52:59.753Z,12.80
2019-05-19T17:55:28.645Z,12.70
2019-05-19T17:57:57.942Z,12.60
2019-05-19T18:00:35.436Z,12.50
2019-05-19T18:03:04.073Z,12.50
2019-05-19T18:05:32.504Z,12.50
2019-05-19T18:08:00.409Z,12.50
2019-05-19T18:10:28.377Z,12.50
2019-05-19T18:12:56.793Z,12.50
2019-05-19T18:15:24.955Z,12.50
2019-05-19T18:17:52.919Z,12.50
2019-05-19T18:20:23.696Z,12.50
2019-05-19T18:22:51.281Z,12.50
2019-05-19T18:25:19.209Z,12.50
2019-05-19T18:27:47.531Z,12.40
2019-05-19T18:30:15.736Z,12.30
2019-05-19T18:32:43.879Z,12.30
2019-05-19T18:35:11.856Z,12.30
2019-05-19T18:37:39.943Z,12.30
2019-05-19T18:40:08.356Z,12.40
2019-05-19T18:42:36.328Z,12.40
2019-05-19T18:45:04.527Z,12.40
2019-05-19T18:47:32.496Z,12.30
2019-05-19T18:50:00.408Z,12.30
2019-05-19T18:52:28.319Z,12.20
2019-05-19T18:54:56.230Z,12.20
2019-05-19T18:57:24.197Z,12.10
2019-05-19T18:59:52.270Z,12.10
2019-05-19T19:02:20.784Z,12.00
2019-05-19T19:04:48.880Z,12.00
2019-05-19T19:07:16.807Z,12.00
2019-05-19T19:09:44.827Z,12.00
2019-05-19T19:12:12.795Z,12.00
2019-05-19T19:14:40.618Z,11.90
2019-05-19T19:17:08.643Z,11.90
2019-05-19T19:19:36.981Z,11.90
2019-05-19T19:22:04.945Z,11.80
2019-05-19T19:24:32.805Z,11.80
2019-05-19T19:27:00.921Z,11.90
2019-05-19T19:29:28.959Z,11.90
2019-05-19T19:31:56.939Z,11.90
2019-05-19T19:34:25.318Z,11.90
2019-05-19T19:36:53.278Z,11.90
2019-05-19T19:39:21.482Z,11.90
2019-05-19T19:41:49.727Z,11.90
2019-05-19T19:44:18.619Z,11.80
2019-05-19T19:46:46.637Z,11.80
2019-05-19T19:49:14.665Z,11.80
2019-05-19T19:51:42.701Z,11.70
2019-05-19T19:54:10.789Z,11.70
2019-05-19T19:56:38.854Z,11.70
2019-05-19T19:59:06.995Z,11.60
2019-05-19T20:01:35.058Z,11.60
2019-05-19T20:04:03.029Z,11.60
2019-05-19T20:06:31.407Z,11.60
2019-05-19T20:08:59.315Z,11.60
2019-05-19T20:11:28.374Z,11.60
2019-05-19T20:13:56.506Z,11.60
2019-05-19T20:16:24.896Z,11.60
2019-05-19T20:18:53.497Z,11.60
2019-05-19T20:21:21.880Z,11.60
2019-05-19T20:23:50.467Z,11.60
2019-05-19T20:26:19.016Z,11.60
2019-05-19T20:28:47.517Z,11.50
2019-05-19T20:31:15.565Z,11.50
2019-05-19T20:33:43.636Z,11.50
2019-05-19T20:36:11.818Z,11.50
2019-05-19T20:38:40.119Z,11.50
2019-05-19T20:41:08.286Z,11.40
2019-05-19T20:43:36.437Z,11.40
2019-05-19T20:46:04.527Z,11.50
2019-05-19T20:48:33.019Z,11.40
2019-05-19T20:51:01.233Z,11.50
2019-05-19T20:53:29.390Z,11.50
2019-05-19T20:55:58.136Z,11.50
2019-05-19T20:58:26.940Z,11.50
2019-05-19T21:00:55.115Z,11.50
2019-05-19T21:03:23.531Z,11.40
2019-05-19T21:05:53.126Z,11.40
2019-05-19T21:08:21.195Z,11.40
2019-05-19T21:10:49.697Z,11.40
2019-05-19T21:13:17.858Z,11.40
2019-05-19T21:15:46.009Z,11.40
2019-05-19T21:18:14.773Z,11.40
2019-05-19T21:20:43.047Z,11.40
2019-05-19T21:23:11.509Z,11.40
2019-05-19T21:25:39.595Z,11.40
2019-05-19T21:28:08.088Z,11.40
2019-05-19T21:30:36.686Z,11.40
2019-05-19T21:33:04.901Z,11.40
2019-05-19T21:35:34.151Z,11.40
2019-05-19T21:38:02.112Z,11.40
2019-05-19T21:40:30.191Z,11.40
2019-05-19T21:42:58.246Z,11.40
2019-05-19T21:45:26.314Z,11.40
2019-05-19T21:47:54.575Z,11.40
2019-05-19T21:50:22.448Z,11.50
2019-05-19T21:52:50.776Z,11.40
2019-05-19T21:55:19.185Z,11.40
2019-05-19T21:57:47.944Z,11.40
2019-05-19T22:00:16.037Z,11.40
2019-05-19T22:02:44.056Z,11.40
2019-05-19T22:05:12.032Z,11.40
2019-05-19T22:07:50.603Z,11.40
2019-05-19T22:10:18.538Z,11.40
2019-05-19T22:12:46.507Z,11.50
2019-05-19T22:15:14.848Z,11.50
2019-05-19T22:17:45.028Z,11.50
2019-05-19T22:20:15.348Z,11.50
2019-05-19T22:22:45.518Z,11.50
2019-05-19T22:25:15.317Z,11.50
2019-05-19T22:27:45.275Z,11.50
2019-05-19T22:30:15.564Z,11.50
2019-05-19T22:32:45.336Z,11.50
2019-05-19T22:35:15.878Z,11.50
2019-05-19T22:37:45.774Z,11.50
2019-05-19T22:40:14.975Z,11.50
2019-05-19T22:42:44.204Z,11.50
2019-05-19T22:45:13.925Z,11.50
2019-05-19T22:47:42.219Z,11.50
2019-05-19T22:50:10.651Z,11.50
2019-05-19T22:52:38.883Z,11.50
2019-05-19T22:55:08.220Z,11.50
2019-05-19T22:57:36.280Z,11.60
2019-05-19T23:00:06.047Z,11.50
2019-05-19T23:02:34.020Z,11.60
2019-05-19T23:05:02.028Z,11.60
2019-05-19T23:07:29.983Z,11.50
2019-05-19T23:09:58.339Z,11.50
2019-05-19T23:12:26.231Z,11.50
2019-05-19T23:14:54.147Z,11.60
2019-05-19T23:17:22.556Z,11.50
2019-05-19T23:19:50.784Z,11.50
2019-05-19T23:22:19.029Z,11.50
2019-05-19T23:24:46.937Z,11.50
2019-05-19T23:27:15.059Z,11.50
2019-05-19T23:29:43.069Z,11.50
2019-05-19T23:32:10.924Z,11.50
2019-05-19T23:34:38.841Z,11.50
2019-05-19T23:37:06.760Z,11.50
2019-05-19T23:39:34.753Z,11.50
2019-05-19T23:42:02.778Z,11.60
2019-05-19T23:44:31.025Z,11.60
2019-05-19T23:46:59.241Z,11.60
2019-05-19T23:49:27.190Z,11.50
2019-05-19T23:51:55.676Z,11.50
2019-05-19T23:54:25.276Z,11.60
2019-05-19T23:56:53.903Z,11.60
2019-05-19T23:59:21.876Z,11.50
